createdAt,value
2023-04-01T00:01:08.091Z,68.20
2023-04-01T00:03:45.487Z,68.20
2023-04-01T00:06:21.193Z,68.30
2023-04-01T00:08:54.858Z,68.30
2023-04-01T00:11:29.945Z,68.30
2023-04-01T00:14:03.954Z,68.30
2023-04-01T00:16:38.541Z,68.30
2023-04-01T00:19:14.025Z,68.40
2023-04-01T00:21:49.304Z,68.50
2023-04-01T00:24:22.877Z,68.60
2023-04-01T00:26:57.400Z,68.60
2023-04-01T00:29:32.072Z,68.80
2023-04-01T00:32:07.433Z,68.70
2023-04-01T00:34:43.257Z,68.80
2023-04-01T00:37:17.283Z,68.90
2023-04-01T00:39:53.385Z,68.90
2023-04-01T00:42:27.115Z,68.70
2023-04-01T00:45:21.889Z,68.90
2023-04-01T00:47:56.292Z,69.00
2023-04-01T00:50:35.333Z,69.00
2023-04-01T00:53:11.637Z,69.00
2023-04-01T00:55:53.777Z,69.10
2023-04-01T00:58:35.454Z,69.10
2023-04-01T01:01:12.199Z,69.10
2023-04-01T01:03:46.157Z,69.10
2023-04-01T01:06:46.619Z,69.10
2023-04-01T01:09:33.927Z,69.30
2023-04-01T01:12:16.430Z,69.40
2023-04-01T01:15:04.095Z,69.40
2023-04-01T01:17:54.953Z,69.40
2023-04-01T01:21:19.151Z,69.50
2023-04-01T01:24:41.438Z,69.70
2023-04-01T01:27:19.754Z,69.60
2023-04-01T01:30:28.440Z,69.40
2023-04-01T01:33:39.200Z,69.70
2023-04-01T01:36:17.107Z,69.60
2023-04-01T01:38:54.006Z,69.50
2023-04-01T01:41:30.202Z,69.60
2023-04-01T01:44:09.830Z,69.60
2023-04-01T01:46:47.113Z,69.70
2023-04-01T01:49:22.919Z,69.60
2023-04-01T01:51:58.476Z,69.70
2023-04-01T01:54:32.691Z,69.70
2023-04-01T01:57:12.362Z,69.70
2023-04-01T01:59:50.790Z,69.80
2023-04-01T02:02:26.298Z,69.70
2023-04-01T02:05:01.254Z,69.80
2023-04-01T02:07:41.963Z,69.60
2023-04-01T02:10:16.958Z,69.70
2023-04-01T02:12:52.959Z,69.80
2023-04-01T02:15:32.738Z,69.90
2023-04-01T02:18:08.488Z,69.80
2023-04-01T02:20:44.542Z,69.70
2023-04-01T02:23:20.030Z,69.90
2023-04-01T02:25:54.337Z,69.70
2023-04-01T02:28:30.940Z,69.70
2023-04-01T02:31:06.761Z,69.80
2023-04-01T02:33:42.970Z,69.80
2023-04-01T02:36:18.754Z,69.80
2023-04-01T02:39:00.561Z,69.80
2023-04-01T02:41:40.903Z,69.90
2023-04-01T02:44:17.415Z,69.80
2023-04-01T02:46:51.728Z,69.90
2023-04-01T02:49:25.721Z,69.80
2023-04-01T02:51:59.922Z,70.00
2023-04-01T02:54:35.303Z,70.10
2023-04-01T02:57:09.395Z,70.00
2023-04-01T02:59:44.223Z,70.10
2023-04-01T03:02:19.165Z,70.00
2023-04-01T03:04:53.261Z,70.20
2023-04-01T03:07:26.889Z,70.20
2023-04-01T03:10:02.413Z,70.10
2023-04-01T03:12:36.596Z,70.20
2023-04-01T03:15:14.740Z,70.10
2023-04-01T03:17:49.155Z,70.20
2023-04-01T03:20:23.072Z,70.30
2023-04-01T03:22:57.045Z,70.30
2023-04-01T03:25:32.290Z,70.40
2023-04-01T03:28:06.452Z,70.40
2023-04-01T03:30:40.676Z,70.40
2023-04-01T03:33:14.316Z,70.50
2023-04-01T03:35:48.000Z,70.50
2023-04-01T03:38:22.140Z,70.50
2023-04-01T03:40:57.759Z,70.60
2023-04-01T03:43:32.014Z,70.60
2023-04-01T03:46:06.260Z,71.30
2023-04-01T03:48:40.145Z,70.70
2023-04-01T03:51:13.914Z,70.80
2023-04-01T03:53:47.599Z,70.90
2023-04-01T03:56:23.192Z,70.90
2023-04-01T03:58:56.858Z,71.00
2023-04-01T04:01:31.088Z,71.00
2023-04-01T04:04:05.949Z,71.10
2023-04-01T04:06:39.963Z,71.10
2023-04-01T04:09:14.046Z,71.20
2023-04-01T04:11:49.327Z,71.10
2023-04-01T04:14:23.107Z,71.70
2023-04-01T04:16:57.087Z,71.10
2023-04-01T04:19:35.932Z,71.20
2023-04-01T04:22:09.916Z,71.20
2023-04-01T04:24:43.660Z,71.30
2023-04-01T04:27:19.716Z,71.20
2023-04-01T04:29:53.386Z,71.30
2023-04-01T04:32:29.296Z,71.40
2023-04-01T04:35:04.061Z,71.30
2023-04-01T04:37:38.359Z,71.30
2023-04-01T04:40:14.125Z,71.40
2023-04-01T04:42:49.911Z,71.50
2023-04-01T04:45:23.807Z,71.30
2023-04-01T04:47:58.505Z,71.30
2023-04-01T04:50:33.956Z,71.40
2023-04-01T04:53:08.114Z,71.50
2023-04-01T04:55:47.002Z,71.40
2023-04-01T04:58:22.678Z,71.50
2023-04-01T05:00:57.067Z,71.50
2023-04-01T05:03:32.601Z,71.50
2023-04-01T05:06:08.214Z,71.50
2023-04-01T05:08:44.113Z,71.70
2023-04-01T05:11:21.059Z,71.70
2023-04-01T05:13:56.317Z,71.60
2023-04-01T05:16:31.053Z,71.60
2023-04-01T05:19:05.025Z,71.60
2023-04-01T05:21:38.671Z,71.60
2023-04-01T05:24:12.581Z,71.60
2023-04-01T05:26:46.184Z,71.60
2023-04-01T05:29:21.765Z,71.60
2023-04-01T05:31:56.283Z,71.60
2023-04-01T05:34:30.299Z,71.60
2023-04-01T05:37:04.092Z,71.60
2023-04-01T05:39:40.351Z,71.80
2023-04-01T05:42:14.707Z,71.70
2023-04-01T05:44:50.482Z,71.70
2023-04-01T05:47:24.447Z,71.80
2023-04-01T05:49:58.536Z,71.80
2023-04-01T05:52:32.172Z,71.70
2023-04-01T05:55:07.188Z,71.70
2023-04-01T05:57:40.860Z,71.90
2023-04-01T06:00:20.830Z,71.80
2023-04-01T06:02:54.973Z,71.90
2023-04-01T06:05:33.256Z,71.80
2023-04-01T06:08:14.431Z,71.90
2023-04-01T06:11:16.081Z,71.90
2023-04-01T06:14:19.775Z,72.00
2023-04-01T06:17:21.785Z,72.00
2023-04-01T06:20:07.740Z,72.10
2023-04-01T06:23:13.610Z,72.00
2023-04-01T06:26:09.349Z,72.10
2023-04-01T06:29:21.739Z,72.10
2023-04-01T06:32:51.152Z,72.10
2023-04-01T06:35:55.033Z,72.20
2023-04-01T06:38:55.377Z,72.00
2023-04-01T06:42:00.047Z,72.20
2023-04-01T06:44:51.564Z,72.20
2023-04-01T06:47:45.641Z,72.10
2023-04-01T06:50:32.414Z,72.40
2023-04-01T06:53:20.399Z,72.20
2023-04-01T06:56:02.452Z,72.20
2023-04-01T06:58:44.439Z,72.20
2023-04-01T07:01:27.097Z,72.20
2023-04-01T07:04:12.395Z,72.20
2023-04-01T07:06:53.914Z,72.20
2023-04-01T07:09:35.376Z,72.30
2023-04-01T07:12:21.518Z,72.30
2023-04-01T07:14:59.334Z,72.40
2023-04-01T07:17:38.772Z,72.40
2023-04-01T07:20:27.532Z,72.40
2023-04-01T07:23:04.789Z,72.40
2023-04-01T07:25:44.198Z,72.30
2023-04-01T07:28:19.243Z,72.50
2023-04-01T07:31:09.823Z,71.80
2023-04-01T07:33:57.085Z,72.60
2023-04-01T07:36:42.138Z,72.50
2023-04-01T07:39:35.324Z,72.60
2023-04-01T07:42:22.120Z,72.70
2023-04-01T07:45:11.941Z,72.70
2023-04-01T07:48:06.346Z,72.70
2023-04-01T07:50:51.897Z,72.70
2023-04-01T07:53:39.024Z,72.60
2023-04-01T07:56:19.894Z,72.60
2023-04-01T07:59:07.421Z,72.60
2023-04-01T08:01:52.080Z,72.70
2023-04-01T08:04:52.898Z,72.70
2023-04-01T08:07:34.559Z,72.80
2023-04-01T08:10:21.172Z,72.60
2023-04-01T08:13:09.216Z,72.60
2023-04-01T08:15:55.849Z,72.60
2023-04-01T08:18:44.087Z,72.50
2023-04-01T08:21:24.359Z,72.50
2023-04-01T08:24:02.855Z,72.40
2023-04-01T08:26:46.228Z,72.50
2023-04-01T08:29:24.870Z,72.50
2023-04-01T08:32:05.839Z,72.40
2023-04-01T08:34:43.110Z,72.50
2023-04-01T08:37:23.122Z,72.40
2023-04-01T08:40:04.375Z,72.50
2023-04-01T08:43:07.559Z,72.60
2023-04-01T08:46:20.033Z,72.80
2023-04-01T08:49:20.641Z,72.80
2023-04-01T08:52:30.554Z,72.70
2023-04-01T08:55:33.747Z,72.80
2023-04-01T08:58:53.363Z,72.90
2023-04-01T09:02:18.242Z,72.80
2023-04-01T09:05:37.601Z,72.80
2023-04-01T09:08:34.315Z,72.90
2023-04-01T09:11:24.453Z,72.80
2023-04-01T09:14:44.003Z,72.90
2023-04-01T09:18:08.806Z,73.20
2023-04-01T09:21:11.125Z,73.30
2023-04-01T09:24:35.961Z,73.00
2023-04-01T09:27:29.781Z,73.10
2023-04-01T09:30:44.868Z,72.90
2023-04-01T09:34:06.757Z,72.90
2023-04-01T09:36:49.150Z,72.90
2023-04-01T09:39:42.551Z,72.70
2023-04-01T09:42:45.324Z,72.90
2023-04-01T09:45:41.281Z,73.00
2023-04-01T09:48:42.966Z,73.00
2023-04-01T09:51:38.320Z,73.00
2023-04-01T09:54:41.452Z,73.00
2023-04-01T09:58:26.324Z,73.10
2023-04-01T10:01:37.236Z,73.40
2023-04-01T10:05:06.092Z,73.40
2023-04-01T10:08:28.303Z,73.60
2023-04-01T10:11:53.168Z,73.60
2023-04-01T10:15:07.036Z,73.60
2023-04-01T10:18:44.673Z,73.50
2023-04-01T10:22:11.092Z,73.50
2023-04-01T10:25:37.803Z,73.50
2023-04-01T10:28:50.840Z,73.50
2023-04-01T10:32:15.110Z,74.00
2023-04-01T10:35:42.262Z,73.50
2023-04-01T10:39:04.871Z,73.50
2023-04-01T10:42:42.881Z,73.50
2023-04-01T10:46:28.816Z,73.70
2023-04-01T10:49:39.840Z,73.70
2023-04-01T10:53:11.697Z,73.40
2023-04-01T10:56:59.904Z,73.40
2023-04-01T11:00:16.064Z,73.30
2023-04-01T11:04:02.964Z,73.00
2023-04-01T11:07:39.026Z,73.20
2023-04-01T11:11:15.996Z,73.10
2023-04-01T11:14:39.855Z,73.10
2023-04-01T11:18:06.236Z,73.00
2023-04-01T11:21:50.665Z,73.00
2023-04-01T11:25:10.341Z,73.00
2023-04-01T11:28:30.281Z,72.80
2023-04-01T11:31:36.975Z,72.80
2023-04-01T11:34:43.409Z,72.80
2023-04-01T11:37:40.515Z,73.60
2023-04-01T11:40:33.027Z,72.80
2023-04-01T11:43:32.256Z,73.00
2023-04-01T11:46:14.161Z,73.00
2023-04-01T11:49:03.809Z,73.00
2023-04-01T11:52:03.897Z,73.30
2023-04-01T11:55:22.208Z,73.50
2023-04-01T11:58:39.181Z,73.50
2023-04-01T12:01:45.621Z,73.60
2023-04-01T12:05:13.481Z,73.60
2023-04-01T12:08:05.462Z,73.60
2023-04-01T12:10:51.553Z,73.50
2023-04-01T12:13:45.882Z,73.60
2023-04-01T12:16:54.133Z,73.60
2023-04-01T12:19:42.496Z,73.80
2023-04-01T12:22:36.661Z,73.60
2023-04-01T12:25:31.817Z,73.60
2023-04-01T12:28:24.301Z,73.50
2023-04-01T12:31:25.772Z,73.40
2023-04-01T12:35:06.319Z,73.40
2023-04-01T12:37:53.348Z,73.50
2023-04-01T12:41:04.739Z,73.30
2023-04-01T12:44:26.188Z,73.50
2023-04-01T12:47:44.785Z,73.60
2023-04-01T12:51:03.932Z,73.40
2023-04-01T12:54:02.406Z,73.60
2023-04-01T12:56:50.147Z,73.40
2023-04-01T12:59:55.795Z,73.40
2023-04-01T13:02:51.013Z,73.60
2023-04-01T13:06:23.044Z,73.40
2023-04-01T13:09:18.014Z,73.40
2023-04-01T13:12:31.624Z,73.00
2023-04-01T13:15:37.357Z,73.10
2023-04-01T13:18:31.602Z,72.90
2023-04-01T13:21:17.910Z,72.70
2023-04-01T13:24:07.665Z,72.70
2023-04-01T13:26:55.560Z,72.60
2023-04-01T13:29:37.080Z,72.50
2023-04-01T13:35:39.857Z,72.40
2023-04-01T13:38:47.433Z,72.30
2023-04-01T13:41:38.021Z,72.20
2023-04-01T13:44:20.275Z,72.20
2023-04-01T13:47:44.069Z,72.20
2023-04-01T13:50:35.327Z,72.40
2023-04-01T13:53:33.938Z,72.40
2023-04-01T13:56:33.348Z,72.60
2023-04-01T13:59:43.990Z,72.70
2023-04-01T14:02:58.598Z,72.70
2023-04-01T14:06:21.339Z,72.70
2023-04-01T14:09:33.509Z,72.90
2023-04-01T14:12:15.862Z,72.70
2023-04-01T14:15:09.657Z,72.60
2023-04-01T14:18:06.899Z,72.70
2023-04-01T14:20:44.318Z,72.70
2023-04-01T14:23:51.975Z,72.70
2023-04-01T14:26:59.433Z,72.90
2023-04-01T14:29:44.730Z,72.90
2023-04-01T14:32:37.582Z,72.80
2023-04-01T14:35:39.578Z,72.80
2023-04-01T14:38:51.576Z,72.90
2023-04-01T14:41:45.838Z,72.90
2023-04-01T14:44:47.636Z,72.80
2023-04-01T14:47:44.922Z,72.70
2023-04-01T14:50:23.972Z,72.70
2023-04-01T14:53:15.379Z,72.70
2023-04-01T14:55:56.372Z,72.90
2023-04-01T14:58:47.615Z,73.10
2023-04-01T15:01:43.989Z,73.20
2023-04-01T15:04:55.483Z,73.10
2023-04-01T15:08:04.613Z,73.30
2023-04-01T15:11:31.454Z,73.40
2023-04-01T15:14:39.503Z,73.20
2023-04-01T15:17:45.908Z,73.00
2023-04-01T15:20:45.276Z,73.00
2023-04-01T15:23:48.942Z,73.00
2023-04-01T15:26:40.199Z,73.10
2023-04-01T15:29:54.540Z,73.10
2023-04-01T15:32:43.461Z,73.10
2023-04-01T15:35:33.044Z,73.00
2023-04-01T15:38:18.410Z,73.20
2023-04-01T15:41:03.962Z,73.20
2023-04-01T15:43:45.632Z,73.30
2023-04-01T15:46:47.227Z,73.30
2023-04-01T15:49:39.308Z,73.50
2023-04-01T15:52:25.007Z,73.30
2023-04-01T15:55:30.157Z,73.20
2023-04-01T15:58:41.042Z,73.20
2023-04-01T16:01:32.658Z,73.10
2023-04-01T16:04:35.288Z,72.90
2023-04-01T16:07:25.754Z,72.90
2023-04-01T16:10:24.203Z,72.90
2023-04-01T16:13:23.876Z,72.90
2023-04-01T16:16:13.536Z,72.90
2023-04-01T16:19:25.308Z,72.80
2023-04-01T16:22:07.728Z,72.80
2023-04-01T16:24:49.387Z,72.70
2023-04-01T16:27:36.136Z,72.60
2023-04-01T16:30:36.246Z,72.60
2023-04-01T16:33:23.756Z,72.70
2023-04-01T16:36:17.177Z,72.60
2023-04-01T16:38:58.214Z,72.60
2023-04-01T16:41:38.995Z,72.60
2023-04-01T16:44:22.684Z,72.60
2023-04-01T16:46:59.471Z,72.80
2023-04-01T16:49:43.427Z,72.80
2023-04-01T16:52:33.521Z,72.70
2023-04-01T16:55:20.248Z,72.90
2023-04-01T16:58:00.437Z,72.90
2023-04-01T17:00:43.725Z,72.90
2023-04-01T17:03:26.503Z,73.00
2023-04-01T17:06:34.206Z,73.00
2023-04-01T17:09:44.197Z,73.00
2023-04-01T17:12:30.704Z,73.10
2023-04-01T17:15:19.513Z,73.00
2023-04-01T17:18:04.127Z,72.90
2023-04-01T17:20:49.000Z,72.90
2023-04-01T17:23:31.702Z,73.00
2023-04-01T17:26:33.648Z,73.00
2023-04-01T17:29:21.469Z,73.20
2023-04-01T17:32:11.339Z,73.10
2023-04-01T17:35:05.114Z,73.20
2023-04-01T17:37:54.700Z,73.20
2023-04-01T17:40:46.890Z,73.10
2023-04-01T17:43:33.568Z,73.20
2023-04-01T17:46:35.637Z,73.10
2023-04-01T17:49:31.528Z,73.10
2023-04-01T17:52:21.102Z,73.00
2023-04-01T17:55:02.923Z,73.10
2023-04-01T17:57:52.864Z,73.00
2023-04-01T18:00:53.026Z,73.10
2023-04-01T18:04:07.269Z,73.00
2023-04-01T18:07:16.558Z,73.10
2023-04-01T18:10:12.430Z,73.20
2023-04-01T18:13:21.807Z,73.90
2023-04-01T18:16:16.464Z,73.20
2023-04-01T18:19:02.233Z,73.10
2023-04-01T18:21:48.858Z,73.10
2023-04-01T18:24:31.136Z,73.20
2023-04-01T18:27:14.615Z,73.20
2023-04-01T18:29:56.209Z,73.10
2023-04-01T18:32:42.302Z,73.50
2023-04-01T18:35:31.085Z,73.30
2023-04-01T19:07:46.186Z,76.00
2023-04-01T19:10:33.820Z,76.90
2023-04-01T19:13:22.731Z,76.70
2023-04-01T19:16:09.689Z,76.60
2023-04-01T19:19:09.376Z,76.20
2023-04-01T19:21:49.270Z,76.40
2023-04-01T19:25:14.554Z,76.00
2023-04-01T19:27:53.691Z,76.30
2023-04-01T19:30:44.558Z,75.90
2023-04-01T19:33:41.732Z,76.00
2023-04-01T19:36:30.490Z,75.90
2023-04-01T19:39:26.698Z,75.60
2023-04-01T19:42:14.187Z,75.60
2023-04-01T19:45:05.476Z,75.50
2023-04-01T19:48:01.850Z,76.00
2023-04-01T19:50:42.525Z,75.10
2023-04-01T19:53:34.550Z,75.00
2023-04-01T19:56:19.065Z,75.00
2023-04-01T19:59:02.155Z,74.90
2023-04-01T20:01:45.483Z,74.80
2023-04-01T20:04:29.188Z,74.60
2023-04-01T20:07:12.902Z,74.30
2023-04-01T20:10:02.704Z,74.20
2023-04-01T20:12:51.852Z,74.10
2023-04-01T20:15:38.159Z,74.00
2023-04-01T20:18:20.779Z,73.90
2023-04-01T20:21:00.658Z,73.80
2023-04-01T20:23:43.929Z,73.80
2023-04-01T20:26:27.702Z,73.60
2023-04-01T20:29:24.770Z,73.60
2023-04-01T20:32:17.512Z,73.50
2023-04-01T20:35:28.037Z,73.40
2023-04-01T20:38:59.909Z,73.40
2023-04-01T20:41:45.474Z,73.30
2023-04-01T20:44:36.958Z,73.20
2023-04-01T20:47:26.756Z,73.20
2023-04-01T20:50:21.318Z,73.20
2023-04-01T20:53:07.418Z,73.00
2023-04-01T20:56:19.090Z,73.00
2023-04-01T20:59:04.830Z,73.10
2023-04-01T21:01:49.847Z,73.00
2023-04-01T21:04:56.446Z,72.90
2023-04-01T21:07:36.699Z,72.90
2023-04-01T21:10:35.128Z,72.80
2023-04-01T21:13:30.366Z,72.80
2023-04-01T21:16:25.023Z,72.70
2023-04-01T21:19:28.527Z,72.60
2023-04-01T21:22:39.467Z,72.60
2023-04-01T21:25:34.112Z,72.60
2023-04-01T21:28:38.135Z,72.50
2023-04-01T21:31:28.207Z,72.50
2023-04-01T21:34:49.586Z,72.40
2023-04-01T21:38:03.235Z,72.40
2023-04-01T21:41:04.754Z,72.30
2023-04-01T21:44:23.718Z,72.20
2023-04-01T21:47:30.572Z,72.20
2023-04-01T21:50:56.317Z,72.10
2023-04-01T21:54:24.468Z,71.90
2023-04-01T21:57:55.378Z,71.90
2023-04-01T22:00:34.775Z,71.80
2023-04-01T22:04:03.866Z,71.80
2023-04-01T22:06:43.036Z,71.80
2023-04-01T22:09:32.008Z,71.80
2023-04-01T22:12:16.147Z,71.70
2023-04-01T22:14:59.915Z,71.70
2023-04-01T22:17:44.262Z,71.70
2023-04-01T22:20:30.211Z,71.80
2023-04-01T22:23:25.299Z,71.70
2023-04-01T22:26:11.305Z,71.90
2023-04-01T22:28:57.804Z,71.80
2023-04-01T22:31:41.765Z,71.80
2023-04-01T22:34:24.964Z,71.90
2023-04-01T22:37:09.398Z,72.00
2023-04-01T22:40:18.676Z,71.90
2023-04-01T22:43:01.783Z,72.00
2023-04-01T22:46:06.216Z,71.90
2023-04-01T22:48:48.919Z,71.80
2023-04-01T22:51:30.526Z,71.70
2023-04-01T22:54:15.893Z,71.80
2023-04-01T22:56:57.813Z,71.70
2023-04-01T22:59:46.029Z,71.60
2023-04-01T23:02:28.253Z,71.60
2023-04-01T23:05:06.386Z,71.60
2023-04-01T23:07:51.078Z,71.60
2023-04-01T23:10:31.266Z,71.60
2023-04-01T23:13:08.120Z,71.80
2023-04-01T23:15:44.209Z,71.90
2023-04-01T23:18:28.156Z,71.90
2023-04-01T23:21:17.088Z,71.80
2023-04-01T23:24:05.619Z,71.80
2023-04-01T23:26:46.540Z,71.80
2023-04-01T23:29:22.872Z,71.80
2023-04-01T23:32:02.955Z,71.70
2023-04-01T23:34:38.757Z,71.80
2023-04-01T23:37:17.745Z,71.80
2023-04-01T23:39:54.380Z,72.50
2023-04-01T23:42:31.776Z,71.80
2023-04-01T23:45:18.496Z,71.80
2023-04-01T23:47:55.157Z,71.80
2023-04-01T23:50:30.500Z,71.80
2023-04-01T23:53:19.086Z,71.70
2023-04-01T23:55:54.926Z,71.60
2023-04-01T23:58:43.648Z,72.00
